createdAt,value
2022-10-12T00:00:20.265Z,35.70
2022-10-12T00:03:24.945Z,36.57
2022-10-12T00:06:28.408Z,35.97
2022-10-12T00:09:31.624Z,35.63
2022-10-12T00:12:35.297Z,35.13
2022-10-12T00:15:39.296Z,37.23
2022-10-12T00:18:43.938Z,36.03
2022-10-12T00:21:47.183Z,36.13
2022-10-12T00:24:50.466Z,36.60
2022-10-12T00:27:53.633Z,37.27
2022-10-12T00:30:56.807Z,30.87
2022-10-12T00:34:03.229Z,31.53
2022-10-12T00:37:25.473Z,31.40
2022-10-12T00:40:32.273Z,30.83
2022-10-12T00:43:39.066Z,27.57
2022-10-12T00:46:46.225Z,27.10
2022-10-12T00:49:55.013Z,25.60
2022-10-12T00:53:04.279Z,25.67
2022-10-12T00:56:12.304Z,25.17
2022-10-12T00:59:20.879Z,24.33
2022-10-12T01:02:25.989Z,26.20
2022-10-12T01:05:30.539Z,23.17
2022-10-12T01:08:34.384Z,23.27
2022-10-12T01:11:37.574Z,21.23
2022-10-12T01:14:40.819Z,20.40
2022-10-12T01:17:53.376Z,19.43
2022-10-12T01:21:11.785Z,19.33
2022-10-12T01:24:48.647Z,19.37
2022-10-12T01:27:55.886Z,18.00
2022-10-12T01:31:05.931Z,16.47
2022-10-12T01:34:14.415Z,17.57
2022-10-12T01:37:25.299Z,14.27
2022-10-12T01:40:34.814Z,15.53
2022-10-12T01:43:40.043Z,16.20
2022-10-12T01:46:46.564Z,12.87
2022-10-12T01:49:49.884Z,13.33
2022-10-12T01:53:04.808Z,13.03
2022-10-12T01:56:12.935Z,12.77
2022-10-12T01:59:27.509Z,12.60
2022-10-12T02:02:40.230Z,12.70
2022-10-12T02:05:49.539Z,12.07
2022-10-12T02:08:59.916Z,12.10
2022-10-12T02:12:07.853Z,10.80
2022-10-12T02:15:15.764Z,9.87
2022-10-12T02:18:22.673Z,10.90
2022-10-12T02:21:31.223Z,8.80
2022-10-12T02:24:38.176Z,9.10
2022-10-12T02:27:47.516Z,8.07
2022-10-12T02:30:55.429Z,8.10
2022-10-12T02:34:05.937Z,7.93
2022-10-12T02:37:13.527Z,8.33
2022-10-12T02:40:22.989Z,7.73
2022-10-12T02:43:30.786Z,8.13
2022-10-12T02:46:36.203Z,7.67
2022-10-12T02:49:42.646Z,6.73
2022-10-12T02:52:46.428Z,6.50
2022-10-12T02:56:02.036Z,6.40
2022-10-12T02:59:05.239Z,6.20
2022-10-12T03:02:09.059Z,6.00
2022-10-12T03:05:13.623Z,5.50
2022-10-12T03:08:16.866Z,4.63
2022-10-12T03:11:20.284Z,5.67
2022-10-12T03:14:23.480Z,5.10
2022-10-12T03:17:26.701Z,5.00
2022-10-12T03:20:31.272Z,5.23
2022-10-12T03:23:34.599Z,4.73
2022-10-12T03:26:37.881Z,4.43
2022-10-12T03:29:41.149Z,4.37
2022-10-12T03:32:44.310Z,3.93
2022-10-12T03:35:49.296Z,3.90
2022-10-12T03:38:52.635Z,3.27
2022-10-12T03:41:55.806Z,3.67
2022-10-12T03:44:58.966Z,3.30
2022-10-12T03:48:05.120Z,3.80
2022-10-12T03:51:09.952Z,3.53
2022-10-12T03:54:13.120Z,3.90
2022-10-12T03:57:16.303Z,3.87
2022-10-12T04:00:19.995Z,3.93
2022-10-12T04:03:23.597Z,4.73
2022-10-12T04:06:28.213Z,4.00
2022-10-12T04:09:31.554Z,4.10
2022-10-12T04:12:34.956Z,4.47
2022-10-12T04:15:38.268Z,4.40
2022-10-12T04:18:41.615Z,5.00
2022-10-12T04:21:46.205Z,6.23
2022-10-12T04:24:49.409Z,5.43
2022-10-12T04:27:52.585Z,6.43
2022-10-12T04:30:55.843Z,7.03
2022-10-12T04:33:59.130Z,6.40
2022-10-12T04:37:03.870Z,9.50
2022-10-12T04:40:08.439Z,11.20
2022-10-12T04:43:11.793Z,12.57
2022-10-12T04:46:15.492Z,14.97
2022-10-12T04:49:18.678Z,15.63
2022-10-12T04:52:23.354Z,20.50
2022-10-12T04:55:26.713Z,21.77
2022-10-12T04:58:29.951Z,21.73
2022-10-12T05:01:33.221Z,22.50
2022-10-12T05:04:36.496Z,20.53
2022-10-12T05:07:41.323Z,21.60
2022-10-12T05:10:46.222Z,20.60
2022-10-12T05:13:49.476Z,19.73
2022-10-12T05:16:52.705Z,18.47
2022-10-12T05:19:55.826Z,18.57
2022-10-12T05:23:00.700Z,18.27
2022-10-12T05:26:04.449Z,15.83
2022-10-12T05:29:07.743Z,16.10
2022-10-12T05:32:10.954Z,15.23
2022-10-12T05:35:14.238Z,15.43
2022-10-12T05:38:19.160Z,15.47
2022-10-12T05:41:22.333Z,15.47
2022-10-12T05:44:25.861Z,15.83
2022-10-12T05:47:29.147Z,15.63
2022-10-12T05:50:32.348Z,17.63
2022-10-12T05:53:37.901Z,17.07
2022-10-12T05:56:41.203Z,16.73
2022-10-12T05:59:44.566Z,16.10
2022-10-12T06:02:47.753Z,16.40
2022-10-12T06:05:51.004Z,15.70
2022-10-12T06:08:55.580Z,14.50
2022-10-12T06:11:59.053Z,11.43
2022-10-12T06:15:06.122Z,13.00
2022-10-12T06:18:09.407Z,12.67
2022-10-12T06:24:37.625Z,13.27
2022-10-12T06:27:40.865Z,13.23
2022-10-12T06:30:44.121Z,11.83
2022-10-12T06:33:47.340Z,12.73
2022-10-12T06:36:50.553Z,13.53
2022-10-12T06:39:55.161Z,11.57
2022-10-12T06:43:02.664Z,9.67
2022-10-12T06:46:06.285Z,9.60
2022-10-12T06:49:10.428Z,9.27
2022-10-12T06:52:13.608Z,10.67
2022-10-12T06:55:18.424Z,7.50
2022-10-12T06:58:21.643Z,8.70
2022-10-12T07:01:24.953Z,9.00
2022-10-12T07:04:28.400Z,9.00
2022-10-12T07:07:32.792Z,7.63
2022-10-12T07:10:37.434Z,9.63
2022-10-12T07:13:41.065Z,5.80
2022-10-12T07:16:44.329Z,6.23
2022-10-12T07:19:47.756Z,6.87
2022-10-12T07:22:50.930Z,7.37
2022-10-12T07:25:56.125Z,6.17
2022-10-12T07:28:59.365Z,5.87
2022-10-12T07:32:02.861Z,5.33
2022-10-12T07:35:06.959Z,5.10
2022-10-12T07:38:11.116Z,5.60
2022-10-12T07:41:16.508Z,5.10
2022-10-12T07:44:21.038Z,5.10
2022-10-12T07:47:24.414Z,5.10
2022-10-12T07:50:27.700Z,5.37
2022-10-12T07:53:30.916Z,5.40
2022-10-12T07:56:35.726Z,7.10
2022-10-12T07:59:39.126Z,6.00
2022-10-12T08:02:42.472Z,4.23
2022-10-12T08:05:45.699Z,4.70
2022-10-12T08:08:49.441Z,4.23
2022-10-12T08:11:54.187Z,3.90
2022-10-12T08:14:57.453Z,4.47
2022-10-12T08:18:00.746Z,4.70
2022-10-12T08:21:05.702Z,4.23
2022-10-12T08:24:09.716Z,3.47
2022-10-12T08:27:14.321Z,5.43
2022-10-12T08:30:17.675Z,5.37
2022-10-12T08:33:21.304Z,5.73
2022-10-12T08:36:24.570Z,5.40
2022-10-12T08:39:28.165Z,5.00
2022-10-12T08:42:45.613Z,4.03
2022-10-12T08:45:53.929Z,3.38
2022-10-12T08:49:01.828Z,3.25
2022-10-12T08:52:07.115Z,3.40
2022-10-12T08:55:21.909Z,3.40
2022-10-12T08:58:30.083Z,3.50
2022-10-12T09:01:38.652Z,4.75
2022-10-12T09:04:51.968Z,3.38
2022-10-12T09:07:59.447Z,3.30
2022-10-12T09:11:13.388Z,3.90
2022-10-12T09:14:23.360Z,4.30
2022-10-12T09:17:30.765Z,3.50
2022-10-12T09:20:41.622Z,3.22
2022-10-12T09:23:45.396Z,4.07
2022-10-12T09:26:53.223Z,4.13
2022-10-12T09:30:02.897Z,5.80
2022-10-12T09:33:18.120Z,5.18
2022-10-12T09:36:23.492Z,4.60
2022-10-12T09:39:31.828Z,4.60
2022-10-12T09:42:35.746Z,3.72
2022-10-12T09:45:40.643Z,3.10
2022-10-12T09:48:58.594Z,3.55
2022-10-12T09:52:02.143Z,3.88
2022-10-12T09:55:09.153Z,4.65
2022-10-12T09:58:21.784Z,5.18
2022-10-12T10:01:29.494Z,4.25
2022-10-12T10:04:33.118Z,3.83
2022-10-12T10:07:36.451Z,4.13
2022-10-12T10:10:49.904Z,4.35
2022-10-12T10:13:55.049Z,4.18
2022-10-12T10:16:59.796Z,4.32
2022-10-12T10:20:06.444Z,3.33
2022-10-12T10:23:25.778Z,3.70
2022-10-12T10:26:32.008Z,3.58
2022-10-12T10:29:37.961Z,3.78
2022-10-12T10:32:42.702Z,3.25
2022-10-12T10:36:01.400Z,3.20
2022-10-12T10:39:08.327Z,2.88
2022-10-12T10:42:13.187Z,3.37
2022-10-12T10:45:25.587Z,3.33
2022-10-12T10:48:33.545Z,2.95
2022-10-12T10:51:43.149Z,3.90
2022-10-12T10:54:46.626Z,4.57
2022-10-12T10:57:59.062Z,3.90
2022-10-12T11:01:07.248Z,3.42
2022-10-12T11:04:18.818Z,3.47
2022-10-12T11:07:29.185Z,3.40
2022-10-12T11:10:36.284Z,3.45
2022-10-12T11:13:44.257Z,4.00
2022-10-12T11:16:52.240Z,3.30
2022-10-12T11:20:07.395Z,4.00
2022-10-12T11:23:19.824Z,3.80
2022-10-12T11:26:29.708Z,3.53
2022-10-12T11:29:33.035Z,4.68
2022-10-12T11:32:40.128Z,3.58
2022-10-12T11:35:47.167Z,3.20
2022-10-12T11:38:54.665Z,3.08
2022-10-12T11:42:20.823Z,3.50
2022-10-12T11:45:28.673Z,3.50
2022-10-12T11:48:38.139Z,4.13
2022-10-12T11:51:46.959Z,3.70
2022-10-12T11:54:59.524Z,3.80
2022-10-12T11:58:13.572Z,3.95
2022-10-12T12:01:41.652Z,3.83
2022-10-12T12:04:47.209Z,4.00
2022-10-12T12:07:54.545Z,4.43
2022-10-12T12:11:07.580Z,4.07
2022-10-12T12:14:46.736Z,3.70
2022-10-12T12:18:13.658Z,3.90
2022-10-12T12:21:17.019Z,4.20
2022-10-12T12:24:21.744Z,3.67
2022-10-12T12:27:32.883Z,5.18
2022-10-12T12:30:39.130Z,4.38
2022-10-12T12:33:46.333Z,4.55
2022-10-12T12:36:51.746Z,4.57
2022-10-12T12:39:58.961Z,4.75
2022-10-12T12:43:37.608Z,4.90
2022-10-12T12:47:45.220Z,4.57
2022-10-12T12:50:42.239Z,4.90
2022-10-12T12:53:50.229Z,4.20
2022-10-12T12:57:28.518Z,4.75
2022-10-12T13:00:39.419Z,4.80
2022-10-12T13:04:16.732Z,4.57
2022-10-12T13:07:58.161Z,4.60
2022-10-12T13:11:39.038Z,4.90
2022-10-12T13:15:15.254Z,4.60
2022-10-12T13:18:48.259Z,4.82
2022-10-12T13:21:54.182Z,4.70
2022-10-12T13:25:02.044Z,5.72
2022-10-12T13:28:11.741Z,5.97
2022-10-12T13:31:20.326Z,6.75
2022-10-12T13:34:28.328Z,5.20
2022-10-12T13:37:33.434Z,8.52
2022-10-12T13:40:41.527Z,5.20
2022-10-12T13:43:47.131Z,4.63
2022-10-12T13:46:54.955Z,5.43
2022-10-12T13:49:58.679Z,6.20
2022-10-12T13:53:01.829Z,5.10
2022-10-12T13:56:10.449Z,5.40
2022-10-12T13:59:19.223Z,4.80
2022-10-12T14:02:26.832Z,4.65
2022-10-12T14:05:32.230Z,4.65
2022-10-12T14:08:36.709Z,4.60
2022-10-12T14:11:41.631Z,4.10
2022-10-12T14:14:47.749Z,4.70
2022-10-12T14:17:52.757Z,4.40
2022-10-12T14:21:07.380Z,4.85
2022-10-12T14:24:11.732Z,5.00
2022-10-12T14:27:24.336Z,4.00
2022-10-12T14:30:31.076Z,5.60
2022-10-12T14:33:35.676Z,4.60
2022-10-12T14:36:39.076Z,4.90
2022-10-12T14:39:43.812Z,4.75
2022-10-12T14:42:55.968Z,4.75
2022-10-12T14:45:59.200Z,4.88
2022-10-12T14:49:03.819Z,5.15
2022-10-12T14:52:07.647Z,4.75
2022-10-12T14:55:16.817Z,5.15
2022-10-12T14:58:20.057Z,5.93
2022-10-12T15:01:24.564Z,6.40
2022-10-12T15:04:29.246Z,6.80
2022-10-12T15:07:34.660Z,5.60
2022-10-12T15:10:38.576Z,5.80
2022-10-12T15:13:42.548Z,17.35
2022-10-12T15:16:45.803Z,6.80
2022-10-12T15:19:52.460Z,5.63
2022-10-12T15:22:55.657Z,6.28
2022-10-12T15:26:00.403Z,5.13
2022-10-12T15:29:03.625Z,5.20
2022-10-12T15:32:10.294Z,4.90
2022-10-12T15:35:20.734Z,5.03
2022-10-12T15:38:24.132Z,4.70
2022-10-12T15:41:27.946Z,5.22
2022-10-12T15:44:31.177Z,5.60
2022-10-12T15:47:34.386Z,5.97
2022-10-12T15:50:41.412Z,6.90
2022-10-12T15:53:45.066Z,7.35
2022-10-12T15:56:49.595Z,8.27
2022-10-12T15:59:53.428Z,8.77
2022-10-12T16:02:57.879Z,9.30
2022-10-12T16:06:02.496Z,9.75
2022-10-12T16:09:05.769Z,9.98
2022-10-12T16:12:09.037Z,11.23
2022-10-12T16:15:16.440Z,10.77
2022-10-12T16:18:19.894Z,11.13
2022-10-12T16:21:24.551Z,12.20
2022-10-12T16:24:27.757Z,12.73
2022-10-12T16:27:31.083Z,13.60
2022-10-12T16:30:34.384Z,13.67
2022-10-12T16:33:37.766Z,13.60
2022-10-12T16:36:42.372Z,15.20
2022-10-12T16:39:45.926Z,14.47
2022-10-12T16:42:53.724Z,14.57
2022-10-12T16:45:57.520Z,14.03
2022-10-12T16:49:00.761Z,14.17
2022-10-12T16:52:05.439Z,14.03
2022-10-12T16:55:09.473Z,14.77
2022-10-12T16:58:12.776Z,15.20
2022-10-12T17:01:16.031Z,14.63
2022-10-12T17:04:19.586Z,15.90
2022-10-12T17:07:24.283Z,15.70
2022-10-12T17:10:27.462Z,15.30
2022-10-12T17:13:32.923Z,17.07
2022-10-12T17:16:52.368Z,15.73
2022-10-12T17:19:55.754Z,17.37
2022-10-12T17:23:00.414Z,16.70
2022-10-12T17:26:03.624Z,17.63
2022-10-12T17:29:07.556Z,18.57
2022-10-12T17:32:12.380Z,18.80
2022-10-12T17:35:18.961Z,17.95
2022-10-12T17:38:23.617Z,20.43
2022-10-12T17:41:28.863Z,20.90
2022-10-12T17:44:32.287Z,19.47
2022-10-12T17:47:35.525Z,19.10
2022-10-12T17:50:38.752Z,18.50
2022-10-12T17:53:44.172Z,18.23
2022-10-12T17:56:47.582Z,17.53
2022-10-12T17:59:50.783Z,17.53
2022-10-12T18:02:54.092Z,18.83
2022-10-12T18:05:57.322Z,16.83
2022-10-12T18:09:03.318Z,18.27
2022-10-12T18:12:06.854Z,15.53
2022-10-12T18:15:10.694Z,15.63
2022-10-12T18:18:15.378Z,14.43
2022-10-12T18:21:19.865Z,15.23
2022-10-12T18:24:25.160Z,15.17
2022-10-12T18:27:28.371Z,15.80
2022-10-12T18:30:31.527Z,14.57
2022-10-12T18:33:35.609Z,13.70
2022-10-12T18:36:40.009Z,13.30
2022-10-12T18:39:44.655Z,12.87
2022-10-12T18:42:48.149Z,12.47
2022-10-12T18:45:51.343Z,11.47
2022-10-12T18:48:54.569Z,11.70
2022-10-12T18:51:58.240Z,10.50
2022-10-12T18:55:03.045Z,9.97
2022-10-12T18:58:06.916Z,10.30
2022-10-12T19:01:11.758Z,11.00
2022-10-12T19:04:15.097Z,10.27
2022-10-12T19:07:18.336Z,10.83
2022-10-12T19:10:23.121Z,10.03
2022-10-12T19:13:26.450Z,9.07
2022-10-12T19:16:30.784Z,9.20
2022-10-12T19:19:34.029Z,8.97
2022-10-12T19:22:37.397Z,9.10
2022-10-12T19:25:42.093Z,7.80
2022-10-12T19:28:45.738Z,8.70
2022-10-12T19:31:50.934Z,7.53
2022-10-12T19:34:54.162Z,8.13
2022-10-12T19:37:57.607Z,7.97
2022-10-12T19:41:02.516Z,7.53
2022-10-12T19:44:06.122Z,8.73
2022-10-12T19:47:09.346Z,8.60
2022-10-12T19:50:12.566Z,8.50
2022-10-12T19:53:16.151Z,8.50
2022-10-12T19:56:22.041Z,8.50
2022-10-12T19:59:25.330Z,7.93
2022-10-12T20:02:28.550Z,8.27
2022-10-12T20:05:31.769Z,8.63
2022-10-12T20:08:35.440Z,7.43
2022-10-12T20:11:40.242Z,8.10
2022-10-12T20:14:43.504Z,8.33
2022-10-12T20:17:46.699Z,10.47
2022-10-12T20:20:50.455Z,12.70
2022-10-12T20:23:53.684Z,8.17
2022-10-12T20:26:58.359Z,13.03
2022-10-12T20:30:01.562Z,14.43
2022-10-12T20:33:05.557Z,14.33
2022-10-12T20:36:11.155Z,16.10
2022-10-12T20:39:14.499Z,16.43
2022-10-12T20:42:21.971Z,19.77
2022-10-12T20:45:25.571Z,19.03
2022-10-12T20:48:28.787Z,17.77
2022-10-12T20:51:34.180Z,19.67
2022-10-12T20:54:37.784Z,17.73
2022-10-12T20:57:42.415Z,17.23
2022-10-12T21:00:45.762Z,21.23
2022-10-12T21:03:48.995Z,19.77
2022-10-12T21:06:53.163Z,21.93
2022-10-12T21:09:56.370Z,23.00
2022-10-12T21:13:00.959Z,25.13
2022-10-12T21:16:04.189Z,23.33
2022-10-12T21:19:07.841Z,22.27
2022-10-12T21:22:11.764Z,20.43
2022-10-12T21:25:15.133Z,18.00
2022-10-12T21:28:20.069Z,18.53
2022-10-12T21:31:27.018Z,18.67
2022-10-12T21:34:32.755Z,16.60
2022-10-12T21:37:36.011Z,16.87
2022-10-12T21:40:39.308Z,18.43
2022-10-12T21:43:44.459Z,18.57
2022-10-12T21:46:47.699Z,20.97
2022-10-12T21:49:50.880Z,18.77
2022-10-12T21:52:59.329Z,19.17
2022-10-12T21:56:06.994Z,21.40
2022-10-12T21:59:12.057Z,19.40
2022-10-12T22:02:15.379Z,18.10
2022-10-12T22:05:18.770Z,17.07
2022-10-12T22:08:22.009Z,19.00
2022-10-12T22:11:27.262Z,19.67
2022-10-12T22:14:31.845Z,20.20
2022-10-12T22:17:36.004Z,22.53
2022-10-12T22:20:39.229Z,23.60
2022-10-12T22:23:43.067Z,24.17
2022-10-12T22:26:46.607Z,38.47
2022-10-12T22:29:51.873Z,38.70
2022-10-12T22:32:55.041Z,29.50
2022-10-12T22:36:00.154Z,30.37
2022-10-12T22:39:04.685Z,29.17
2022-10-12T22:42:07.892Z,28.00
2022-10-12T22:45:12.603Z,27.13
2022-10-12T22:48:15.865Z,23.67
2022-10-12T22:51:22.705Z,21.10
2022-10-12T22:54:25.958Z,21.80
2022-10-12T22:57:31.085Z,21.23
2022-10-12T23:00:35.803Z,18.73
2022-10-12T23:03:39.853Z,16.73
2022-10-12T23:06:45.870Z,15.27
2022-10-12T23:09:49.806Z,15.07
2022-10-12T23:12:53.002Z,16.40
2022-10-12T23:16:02.389Z,16.10
2022-10-12T23:19:07.024Z,16.20
2022-10-12T23:22:10.259Z,18.30
2022-10-12T23:25:13.453Z,16.73
2022-10-12T23:28:16.719Z,17.03
2022-10-12T23:31:23.050Z,15.90
2022-10-12T23:34:29.175Z,16.67
2022-10-12T23:37:32.389Z,16.63
2022-10-12T23:40:36.265Z,15.73
2022-10-12T23:43:42.986Z,16.27
2022-10-12T23:46:47.586Z,16.90
2022-10-12T23:49:50.838Z,17.37
2022-10-12T23:52:54.165Z,16.03
2022-10-12T23:55:57.784Z,18.07
2022-10-12T23:59:02.457Z,18.70
